createdAt,value
2019-02-12T00:00:52.406Z,100596.18
2019-02-12T00:03:19.485Z,100594.91
2019-02-12T00:05:46.689Z,100598.81
2019-02-12T00:08:13.789Z,100609.26
2019-02-12T00:10:40.867Z,100621.81
2019-02-12T00:13:07.926Z,100609.69
2019-02-12T00:15:34.995Z,100608.38
2019-02-12T00:18:02.062Z,100615.77
2019-02-12T00:20:29.133Z,100615.36
2019-02-12T00:22:56.202Z,100617.96
2019-02-12T00:25:23.268Z,100624.03
2019-02-12T00:27:50.334Z,100638.85
2019-02-12T00:30:17.410Z,100633.64
2019-02-12T00:32:44.670Z,100650.14
2019-02-12T00:35:11.744Z,100643.63
2019-02-12T00:37:38.809Z,100650.97
2019-02-12T00:40:05.952Z,100653.15
2019-02-12T00:42:33.026Z,100658.78
2019-02-12T00:45:00.201Z,100660.98
2019-02-12T00:47:27.261Z,100660.55
2019-02-12T00:49:54.341Z,100672.30
2019-02-12T00:52:21.401Z,100662.29
2019-02-12T00:54:48.483Z,100672.27
2019-02-12T00:57:15.547Z,100680.09
2019-02-12T00:59:42.679Z,100685.73
2019-02-12T01:02:09.842Z,100689.20
2019-02-12T01:04:36.900Z,100691.37
2019-02-12T01:07:03.968Z,100696.58
2019-02-12T01:09:31.051Z,100698.34
2019-02-12T01:11:58.132Z,100695.31
2019-02-12T01:14:25.200Z,100709.20
2019-02-12T01:16:52.280Z,100712.23
2019-02-12T01:19:19.345Z,100720.45
2019-02-12T01:21:46.403Z,100716.95
2019-02-12T01:24:13.474Z,100727.37
2019-02-12T01:26:40.536Z,100731.70
2019-02-12T01:29:07.606Z,100735.18
2019-02-12T01:31:34.666Z,100737.72
2019-02-12T01:34:01.730Z,100740.72
2019-02-12T01:36:28.815Z,100734.20
2019-02-12T01:38:55.879Z,100755.40
2019-02-12T01:41:22.935Z,100752.36
2019-02-12T01:43:50.001Z,100766.20
2019-02-12T01:46:17.062Z,100755.83
2019-02-12T01:48:44.121Z,100760.17
2019-02-12T01:51:11.177Z,100771.84
2019-02-12T01:53:38.243Z,100771.84
2019-02-12T01:56:05.315Z,100784.43
2019-02-12T01:58:32.379Z,100788.30
2019-02-12T02:00:59.543Z,100801.71
2019-02-12T02:03:26.611Z,100813.42
2019-02-12T02:05:53.676Z,100817.28
2019-02-12T02:08:20.735Z,100830.30
2019-02-12T02:10:47.813Z,100829.35
2019-02-12T02:13:14.862Z,100839.77
2019-02-12T02:15:41.969Z,100841.97
2019-02-12T02:18:09.076Z,100844.48
2019-02-12T02:20:36.259Z,100850.52
2019-02-12T02:23:04.448Z,100852.20
2019-02-12T02:25:31.507Z,100860.44
2019-02-12T02:27:58.575Z,100864.30
2019-02-12T02:30:25.634Z,100863.81
2019-02-12T02:32:52.702Z,100872.92
2019-02-12T02:35:19.761Z,100880.25
2019-02-12T02:37:46.818Z,100889.74
2019-02-12T02:40:13.904Z,100888.38
2019-02-12T02:42:40.971Z,100896.18
2019-02-12T02:45:08.812Z,100905.25
2019-02-12T02:47:35.882Z,100901.73
2019-02-12T02:50:03.516Z,100906.06
2019-02-12T02:52:30.601Z,100911.74
2019-02-12T02:54:57.660Z,100918.20
2019-02-12T02:57:24.732Z,100914.34
2019-02-12T02:59:51.841Z,100920.36
2019-02-12T03:02:18.903Z,100929.46
2019-02-12T03:04:45.983Z,100934.66
2019-02-12T03:07:13.063Z,100943.30
2019-02-12T03:09:40.114Z,100947.19
2019-02-12T03:12:07.182Z,100951.95
2019-02-12T03:14:34.246Z,100954.56
2019-02-12T03:17:01.312Z,100957.98
2019-02-12T03:19:29.577Z,100960.09
2019-02-12T03:22:03.443Z,100965.28
2019-02-12T03:24:25.607Z,100964.38
2019-02-12T03:26:52.659Z,100969.18
2019-02-12T03:29:19.727Z,100974.82
2019-02-12T03:31:46.801Z,100973.08
2019-02-12T03:34:17.138Z,100976.51
2019-02-12T03:36:44.193Z,100989.50
2019-02-12T03:39:11.257Z,100993.83
2019-02-12T03:41:38.333Z,100996.86
2019-02-12T03:44:05.438Z,101004.19
2019-02-12T03:46:32.454Z,101008.08
2019-02-12T03:48:59.516Z,101010.19
2019-02-12T03:51:26.591Z,101004.98
2019-02-12T03:53:53.684Z,101012.36
2019-02-12T03:56:20.752Z,101026.23
2019-02-12T03:58:49.015Z,101028.39
2019-02-12T04:01:16.095Z,101036.63
2019-02-12T04:03:44.459Z,101034.47
2019-02-12T04:06:11.538Z,101034.45
2019-02-12T04:08:38.591Z,101042.25
2019-02-12T04:11:05.648Z,101041.78
2019-02-12T04:13:32.707Z,101042.20
2019-02-12T04:15:59.791Z,101048.25
2019-02-12T04:18:26.880Z,101046.91
2019-02-12T04:20:55.053Z,101048.59
2019-02-12T04:23:22.106Z,101053.77
2019-02-12T04:25:49.169Z,101059.36
2019-02-12T04:28:18.987Z,101062.38
2019-02-12T04:30:46.164Z,101068.00
2019-02-12T04:33:13.227Z,101058.42
2019-02-12T04:35:40.319Z,101064.48
2019-02-12T04:38:07.344Z,101073.14
2019-02-12T04:40:34.408Z,101069.12
2019-02-12T04:43:01.463Z,101068.19
2019-02-12T04:45:29.488Z,101074.17
2019-02-12T04:47:56.563Z,101076.27
2019-02-12T04:50:23.615Z,101074.48
2019-02-12T04:52:50.687Z,101080.09
2019-02-12T04:55:17.754Z,101085.71
2019-02-12T04:57:44.808Z,101085.22
2019-02-12T05:00:13.227Z,101091.22
2019-02-12T05:02:40.293Z,101098.52
2019-02-12T05:05:08.405Z,101093.68
2019-02-12T05:07:35.472Z,101098.01
2019-02-12T05:10:02.627Z,101098.38
2019-02-12T05:12:29.690Z,101106.60
2019-02-12T05:14:56.761Z,101105.72
2019-02-12T05:17:23.810Z,101114.31
2019-02-12T05:19:50.864Z,101116.41
2019-02-12T05:22:17.924Z,101124.13
2019-02-12T05:24:44.989Z,101127.06
2019-02-12T05:27:12.054Z,101134.36
2019-02-12T05:29:39.118Z,101135.16
2019-02-12T05:32:06.171Z,101138.11
2019-02-12T05:34:33.236Z,101139.39
2019-02-12T05:37:00.305Z,101145.83
2019-02-12T05:39:27.399Z,101147.55
2019-02-12T05:41:54.455Z,101153.59
2019-02-12T05:44:21.522Z,101150.92
2019-02-12T05:46:48.595Z,101148.25
2019-02-12T05:49:15.657Z,101152.59
2019-02-12T05:51:42.712Z,101155.67
2019-02-12T05:54:09.799Z,101161.73
2019-02-12T05:56:36.879Z,101169.11
2019-02-12T05:59:03.940Z,101170.41
2019-02-12T06:01:31.035Z,101171.26
2019-02-12T06:03:58.097Z,101171.28
2019-02-12T06:06:25.207Z,101180.87
2019-02-12T06:08:52.291Z,101186.49
2019-02-12T06:11:19.369Z,101189.45
2019-02-12T06:13:46.445Z,101187.28
2019-02-12T06:16:13.551Z,101191.61
2019-02-12T06:18:40.621Z,101186.36
2019-02-12T06:21:12.223Z,101195.50
2019-02-12T06:23:39.324Z,101188.95
2019-02-12T06:26:06.412Z,101193.76
2019-02-12T06:28:33.469Z,101194.63
2019-02-12T06:31:05.972Z,101200.27
2019-02-12T06:33:33.027Z,101205.02
2019-02-12T06:36:05.856Z,101200.70
2019-02-12T06:38:32.967Z,101207.62
2019-02-12T06:41:00.027Z,101218.43
2019-02-12T06:43:27.096Z,101212.75
2019-02-12T06:45:56.182Z,101224.44
2019-02-12T06:48:26.033Z,101218.38
2019-02-12T06:50:54.879Z,101227.91
2019-02-12T06:53:21.939Z,101232.73
2019-02-12T06:55:51.552Z,101238.02
2019-02-12T06:58:18.617Z,101241.91
2019-02-12T07:00:45.683Z,101239.73
2019-02-12T07:03:26.790Z,101242.33
2019-02-12T07:06:29.826Z,101237.94
2019-02-12T07:09:40.274Z,101244.88
2019-02-12T07:12:43.890Z,101246.57
2019-02-12T07:15:25.023Z,101255.61
2019-02-12T07:18:49.011Z,101259.56
2019-02-12T07:21:36.636Z,101263.03
2019-02-12T07:24:54.984Z,101275.22
2019-02-12T07:27:54.595Z,101271.70
2019-02-12T07:30:43.909Z,101273.08
2019-02-12T07:33:43.379Z,101283.09
2019-02-12T07:36:54.676Z,101280.10
2019-02-12T07:39:45.159Z,101281.40
2019-02-12T07:43:08.869Z,101280.55
2019-02-12T07:46:10.003Z,101290.48
2019-02-12T07:49:18.549Z,101295.34
2019-02-12T07:52:16.790Z,101285.88
2019-02-12T07:55:20.909Z,101293.70
2019-02-12T07:58:35.735Z,101296.30
2019-02-12T08:01:34.876Z,101306.32
2019-02-12T08:04:30.602Z,101306.41
2019-02-12T08:07:33.503Z,101315.09
2019-02-12T08:10:38.767Z,101315.60
2019-02-12T08:13:57.030Z,101326.95
2019-02-12T08:16:37.032Z,101323.50
2019-02-12T08:19:33.725Z,101338.75
2019-02-12T08:22:36.280Z,101341.41
2019-02-12T08:25:57.240Z,101343.64
2019-02-12T08:29:07.197Z,101344.11
2019-02-12T08:32:15.628Z,101336.73
2019-02-12T08:35:26.729Z,101344.95
2019-02-12T08:38:34.102Z,101345.04
2019-02-12T08:41:14.273Z,101352.48
2019-02-12T08:44:17.207Z,101348.70
2019-02-12T08:47:25.169Z,101349.20
2019-02-12T08:50:36.896Z,101348.94
2019-02-12T08:53:50.078Z,101358.91
2019-02-12T08:56:24.827Z,101357.31
2019-02-12T08:59:16.752Z,101360.81
2019-02-12T09:02:08.771Z,101366.19
2019-02-12T09:05:29.981Z,101371.52
2019-02-12T09:08:13.586Z,101374.72
2019-02-12T09:11:31.737Z,101376.55
2019-02-12T09:14:04.169Z,101380.53
2019-02-12T09:17:00.507Z,101383.66
2019-02-12T09:19:54.997Z,101386.33
2019-02-12T09:23:28.320Z,101382.05
2019-02-12T09:26:20.130Z,101384.38
2019-02-12T09:29:19.211Z,101392.34
2019-02-12T09:31:56.300Z,101385.14
2019-02-12T09:34:54.890Z,101390.95
2019-02-12T09:37:52.292Z,101382.84
2019-02-12T09:40:53.922Z,101389.08
2019-02-12T09:43:44.712Z,101387.11
2019-02-12T09:46:40.618Z,101382.55
2019-02-12T09:49:55.388Z,101393.48
2019-02-12T09:52:48.107Z,101393.16
2019-02-12T09:55:31.834Z,101388.05
2019-02-12T09:58:53.047Z,101397.73
2019-02-12T10:01:54.591Z,101409.22
2019-02-12T10:04:57.309Z,101411.95
2019-02-12T10:07:37.403Z,101409.42
2019-02-12T10:10:52.304Z,101412.97
2019-02-12T10:13:58.342Z,101411.35
2019-02-12T10:16:53.570Z,101413.61
2019-02-12T10:19:43.347Z,101412.42
2019-02-12T10:23:10.475Z,101420.00
2019-02-12T10:25:44.813Z,101424.34
2019-02-12T10:28:56.457Z,101424.80
2019-02-12T10:31:29.242Z,101423.55
2019-02-12T10:34:00.556Z,101423.69
2019-02-12T10:36:27.805Z,101424.61
2019-02-12T10:38:54.920Z,101424.24
2019-02-12T10:41:31.583Z,101426.52
2019-02-12T10:43:58.894Z,101427.34
2019-02-12T10:46:30.555Z,101419.45
2019-02-12T10:49:02.742Z,101425.16
2019-02-12T10:51:32.175Z,101430.81
2019-02-12T10:54:06.472Z,101429.52
2019-02-12T10:56:36.385Z,101438.31
2019-02-12T10:59:03.452Z,101417.33
2019-02-12T11:01:30.499Z,101435.82
2019-02-12T11:03:57.564Z,101441.92
2019-02-12T11:06:24.616Z,101446.26
2019-02-12T11:08:51.688Z,101443.70
2019-02-12T11:11:18.797Z,101445.01
2019-02-12T11:13:45.862Z,101451.11
2019-02-12T11:16:12.914Z,101443.29
2019-02-12T11:18:40.005Z,101438.89
2019-02-12T11:21:11.938Z,101441.48
2019-02-12T11:23:36.621Z,101431.92
2019-02-12T11:26:03.825Z,101447.63
2019-02-12T11:28:30.883Z,101445.03
2019-02-12T11:31:00.644Z,101446.77
2019-02-12T11:33:27.866Z,101449.92
2019-02-12T11:35:54.931Z,101447.33
2019-02-12T11:38:23.099Z,101452.16
2019-02-12T11:40:50.159Z,101444.88
2019-02-12T11:43:17.232Z,101451.89
2019-02-12T11:45:44.302Z,101451.90
2019-02-12T11:48:11.422Z,101456.75
2019-02-12T11:50:38.512Z,101455.88
2019-02-12T11:53:05.567Z,101458.05
2019-02-12T11:55:32.624Z,101467.72
2019-02-12T11:57:59.789Z,101459.88
2019-02-12T12:00:32.201Z,101459.45
2019-02-12T12:02:59.265Z,101460.33
2019-02-12T12:05:26.354Z,101462.56
2019-02-12T12:07:53.419Z,101464.41
2019-02-12T12:10:20.510Z,101470.02
2019-02-12T12:12:47.568Z,101471.37
2019-02-12T12:15:14.631Z,101477.47
2019-02-12T12:17:41.691Z,101484.00
2019-02-12T12:20:09.076Z,101483.66
2019-02-12T12:22:36.176Z,101488.83
2019-02-12T12:25:03.808Z,101488.45
2019-02-12T12:27:30.870Z,101494.55
2019-02-12T12:29:57.923Z,101493.73
2019-02-12T12:32:24.997Z,101491.98
2019-02-12T12:34:52.113Z,101504.60
2019-02-12T12:37:19.165Z,101505.09
2019-02-12T12:39:46.234Z,101504.19
2019-02-12T12:42:13.287Z,101506.35
2019-02-12T12:44:40.361Z,101503.73
2019-02-12T12:47:07.429Z,101503.80
2019-02-12T12:49:34.491Z,101498.18
2019-02-12T12:52:04.493Z,101506.02
2019-02-12T12:54:33.783Z,101505.59
2019-02-12T12:57:00.862Z,101509.55
2019-02-12T12:59:27.948Z,101502.70
2019-02-12T13:01:54.994Z,101511.83
2019-02-12T13:04:26.269Z,101514.89
2019-02-12T13:06:58.117Z,101507.06
2019-02-12T13:09:25.179Z,101510.59
2019-02-12T13:11:52.255Z,101514.52
2019-02-12T13:14:19.331Z,101519.78
2019-02-12T13:16:46.508Z,101516.30
2019-02-12T13:19:16.452Z,101528.94
2019-02-12T13:21:43.512Z,101518.54
2019-02-12T13:24:10.586Z,101517.67
2019-02-12T13:26:37.643Z,101523.80
2019-02-12T13:29:04.707Z,101522.50
2019-02-12T13:31:31.767Z,101524.25
2019-02-12T13:33:58.842Z,101527.78
2019-02-12T13:36:25.891Z,101538.72
2019-02-12T13:38:52.955Z,101538.77
2019-02-12T13:41:20.003Z,101536.16
2019-02-12T13:43:47.073Z,101538.37
2019-02-12T13:46:14.141Z,101547.97
2019-02-12T13:48:42.278Z,101544.53
2019-02-12T13:51:09.330Z,101544.09
2019-02-12T13:53:36.431Z,101551.52
2019-02-12T13:56:03.497Z,101544.09
2019-02-12T13:58:30.554Z,101543.61
2019-02-12T14:00:57.618Z,101539.64
2019-02-12T14:03:24.805Z,101539.64
2019-02-12T14:05:51.956Z,101532.19
2019-02-12T14:08:19.091Z,101524.78
2019-02-12T14:10:46.224Z,101534.32
2019-02-12T14:13:13.284Z,101530.78
2019-02-12T14:15:40.326Z,101540.36
2019-02-12T14:18:07.389Z,101544.71
2019-02-12T14:20:34.534Z,101541.19
2019-02-12T14:23:01.605Z,101538.13
2019-02-12T14:25:28.681Z,101534.20
2019-02-12T14:27:55.744Z,101536.32
2019-02-12T14:30:22.822Z,101541.45
2019-02-12T14:32:49.876Z,101548.36
2019-02-12T14:35:16.923Z,101553.52
2019-02-12T14:37:43.993Z,101559.98
2019-02-12T14:40:11.088Z,101560.85
2019-02-12T14:42:38.178Z,101562.93
2019-02-12T14:45:06.973Z,101561.57
2019-02-12T14:47:34.031Z,101563.73
2019-02-12T14:50:01.087Z,101555.84
2019-02-12T14:52:28.150Z,101557.08
2019-02-12T14:54:55.204Z,101557.03
2019-02-12T14:57:22.433Z,101566.15
2019-02-12T14:59:49.508Z,101573.51
2019-02-12T15:02:16.565Z,101580.45
2019-02-12T15:04:45.834Z,101577.34
2019-02-12T15:07:12.889Z,101579.88
2019-02-12T15:09:39.990Z,101579.83
2019-02-12T15:12:07.055Z,101588.91
2019-02-12T15:14:34.111Z,101582.37
2019-02-12T15:17:01.172Z,101582.31
2019-02-12T15:19:28.242Z,101579.64
2019-02-12T15:21:57.104Z,101572.67
2019-02-12T15:24:24.164Z,101575.66
2019-02-12T15:26:51.238Z,101580.38
2019-02-12T15:29:18.299Z,101575.09
2019-02-12T15:31:45.369Z,101571.17
2019-02-12T15:34:12.439Z,101574.59
2019-02-12T15:36:39.506Z,101570.61
2019-02-12T15:39:06.656Z,101570.55
2019-02-12T15:41:33.749Z,101573.54
2019-02-12T15:44:01.004Z,101572.59
2019-02-12T15:46:28.067Z,101569.47
2019-02-12T15:48:55.135Z,101566.75
2019-02-12T15:51:22.553Z,101569.78
2019-02-12T15:53:49.604Z,101567.53
2019-02-12T15:56:16.671Z,101569.25
2019-02-12T15:58:43.726Z,101568.76
2019-02-12T16:01:10.780Z,101566.94
2019-02-12T16:03:38.281Z,101572.52
2019-02-12T16:06:05.495Z,101565.50
2019-02-12T16:08:32.556Z,101571.52
2019-02-12T16:10:59.608Z,101579.33
2019-02-12T16:13:26.679Z,101574.94
2019-02-12T16:15:53.736Z,101574.92
2019-02-12T16:18:22.829Z,101572.30
2019-02-12T16:20:49.782Z,101570.99
2019-02-12T16:23:16.843Z,101567.08
2019-02-12T16:25:43.896Z,101571.87
2019-02-12T16:28:10.947Z,101574.47
2019-02-12T16:30:38.009Z,101575.80
2019-02-12T16:33:06.873Z,101574.98
2019-02-12T16:35:33.923Z,101578.92
2019-02-12T16:38:00.979Z,101577.19
2019-02-12T16:40:28.061Z,101570.22
2019-02-12T16:42:55.115Z,101572.40
2019-02-12T16:45:26.495Z,101573.27
2019-02-12T16:47:53.547Z,101568.06
2019-02-12T16:50:20.669Z,101572.45
2019-02-12T16:52:47.733Z,101565.50
2019-02-12T16:55:14.799Z,101561.59
2019-02-12T16:57:41.847Z,101559.00
2019-02-12T17:00:11.516Z,101560.73
2019-02-12T17:02:38.561Z,101558.13
2019-02-12T17:05:07.264Z,101548.17
2019-02-12T17:07:34.332Z,101554.70
2019-02-12T17:10:01.485Z,101553.41
2019-02-12T17:12:28.581Z,101548.27
2019-02-12T17:14:55.645Z,101550.09
2019-02-12T17:17:22.706Z,101549.27
2019-02-12T17:19:49.800Z,101552.77
2019-02-12T17:22:16.871Z,101547.55
2019-02-12T17:24:43.926Z,101551.45
2019-02-12T17:27:10.987Z,101548.79
2019-02-12T17:29:38.059Z,101550.51
2019-02-12T17:32:05.113Z,101544.00
2019-02-12T17:34:32.169Z,101548.33
2019-02-12T17:36:59.226Z,101547.39
2019-02-12T17:39:26.340Z,101551.61
2019-02-12T17:41:53.393Z,101540.67
2019-02-12T17:44:20.492Z,101540.22
2019-02-12T17:46:47.555Z,101539.34
2019-02-12T17:49:14.611Z,101531.48
2019-02-12T17:51:42.383Z,101537.48
2019-02-12T17:54:09.469Z,101533.95
2019-02-12T17:56:36.527Z,101531.76
2019-02-12T17:59:03.595Z,101537.80
2019-02-12T18:01:30.662Z,101536.47
2019-02-12T18:03:57.870Z,101529.94
2019-02-12T18:06:24.932Z,101532.94
2019-02-12T18:08:52.142Z,101530.69
2019-02-12T18:11:23.235Z,101529.44
2019-02-12T18:13:57.814Z,101531.19
2019-02-12T18:16:26.094Z,101523.44
2019-02-12T18:18:53.351Z,101522.56
2019-02-12T18:21:21.811Z,101519.52
2019-02-12T18:23:55.622Z,101515.63
2019-02-12T18:26:32.919Z,101513.53
2019-02-12T18:28:54.385Z,101511.80
2019-02-12T18:31:21.459Z,101511.37
2019-02-12T18:33:48.667Z,101512.29
2019-02-12T18:36:17.500Z,101515.34
2019-02-12T18:38:47.339Z,101508.83
2019-02-12T18:41:14.597Z,101508.45
2019-02-12T18:43:55.511Z,101512.38
2019-02-12T18:46:25.211Z,101507.13
2019-02-12T18:48:55.509Z,101501.93
2019-02-12T18:51:27.549Z,101506.33
2019-02-12T18:54:01.858Z,101498.08
2019-02-12T18:56:32.247Z,101502.87
2019-02-12T18:59:02.374Z,101496.72
2019-02-12T19:01:33.599Z,101485.80
2019-02-12T19:04:09.799Z,101475.73
2019-02-12T19:06:47.748Z,101473.48
2019-02-12T19:09:15.299Z,101481.75
2019-02-12T19:11:53.956Z,101475.72
2019-02-12T19:14:14.108Z,101475.72
2019-02-12T19:16:41.316Z,101468.72
2019-02-12T19:19:11.483Z,101467.47
2019-02-12T19:21:48.715Z,101466.16
2019-02-12T19:24:17.607Z,101470.09
2019-02-12T19:26:49.799Z,101464.92
2019-02-12T19:29:13.622Z,101461.89
2019-02-12T19:31:40.691Z,101456.23
2019-02-12T19:34:07.830Z,101457.05
2019-02-12T19:36:34.886Z,101455.32
2019-02-12T19:39:02.004Z,101451.34
2019-02-12T19:41:29.067Z,101446.13
2019-02-12T19:43:56.182Z,101439.16
2019-02-12T19:46:23.241Z,101440.91
2019-02-12T19:48:50.306Z,101439.61
2019-02-12T19:51:17.366Z,101427.45
2019-02-12T19:53:44.424Z,101424.83
2019-02-12T19:56:11.487Z,101427.37
2019-02-12T19:58:38.563Z,101419.11
2019-02-12T20:01:05.615Z,101417.38
2019-02-12T20:03:32.688Z,101411.30
2019-02-12T20:05:59.753Z,101416.52
2019-02-12T20:08:26.824Z,101409.14
2019-02-12T20:10:53.883Z,101400.88
2019-02-12T20:13:20.951Z,101404.41
2019-02-12T20:15:48.050Z,101402.23
2019-02-12T20:18:15.115Z,101401.38
2019-02-12T20:20:42.255Z,101396.17
2019-02-12T20:23:09.332Z,101397.97
2019-02-12T20:25:36.385Z,101397.16
2019-02-12T20:28:03.455Z,101397.16
2019-02-12T20:30:30.514Z,101395.48
2019-02-12T20:32:57.580Z,101384.23
2019-02-12T20:35:24.651Z,101374.70
2019-02-12T20:37:51.711Z,101378.23
2019-02-12T20:40:18.773Z,101379.59
2019-02-12T20:42:45.844Z,101370.97
2019-02-12T20:45:13.587Z,101365.80
2019-02-12T20:47:40.659Z,101360.66
2019-02-12T20:50:08.898Z,101360.71
2019-02-12T20:52:35.960Z,101359.85
2019-02-12T20:55:03.200Z,101351.59
2019-02-12T20:57:33.040Z,101353.32
2019-02-12T21:00:02.208Z,101343.77
2019-02-12T21:02:29.384Z,101334.25
2019-02-12T21:04:58.741Z,101332.97
2019-02-12T21:07:25.874Z,101332.63
2019-02-12T21:09:55.879Z,101327.85
2019-02-12T21:12:25.282Z,101330.46
2019-02-12T21:14:54.823Z,101319.59
2019-02-12T21:17:25.294Z,101322.31
2019-02-12T21:19:55.011Z,101306.06
2019-02-12T21:22:22.219Z,101317.56
2019-02-12T21:24:52.256Z,101315.78
2019-02-12T21:27:23.490Z,101316.27
2019-02-12T21:29:59.531Z,101309.31
2019-02-12T21:32:29.574Z,101306.27
2019-02-12T21:34:56.798Z,101297.53
2019-02-12T21:37:32.953Z,101296.22
2019-02-12T21:40:00.032Z,101288.83
2019-02-12T21:42:27.299Z,101283.12
2019-02-12T21:44:57.504Z,101283.08
2019-02-12T21:47:24.842Z,101276.50
2019-02-12T21:49:51.970Z,101273.94
2019-02-12T21:52:19.186Z,101264.34
2019-02-12T21:54:46.462Z,101260.03
2019-02-12T21:57:18.755Z,101253.08
2019-02-12T21:59:47.986Z,101249.66
2019-02-12T22:02:17.317Z,101240.52
2019-02-12T22:04:47.087Z,101240.53
2019-02-12T22:07:18.472Z,101232.27
2019-02-12T22:09:48.148Z,101226.62
2019-02-12T22:12:18.273Z,101223.58
2019-02-12T22:14:46.685Z,101209.19
2019-02-12T22:17:18.826Z,101201.84
2019-02-12T22:19:48.515Z,101199.23
2019-02-12T22:22:28.230Z,101182.71
2019-02-12T22:25:00.317Z,101187.06
2019-02-12T22:27:27.369Z,101175.36
2019-02-12T22:29:54.416Z,101167.98
2019-02-12T22:32:21.482Z,101156.24
2019-02-12T22:34:48.541Z,101141.50
2019-02-12T22:37:15.592Z,101138.03
2019-02-12T22:39:42.674Z,101129.38
2019-02-12T22:42:09.732Z,101125.94
2019-02-12T22:44:36.801Z,101119.88
2019-02-12T22:47:03.870Z,101113.37
2019-02-12T22:49:30.928Z,101106.02
2019-02-12T22:51:58.396Z,101096.45
2019-02-12T22:54:25.571Z,101090.40
2019-02-12T22:56:52.631Z,101083.88
2019-02-12T22:59:19.726Z,101080.87
2019-02-12T23:01:46.886Z,101064.37
2019-02-12T23:04:13.938Z,101046.98
2019-02-12T23:06:40.998Z,101044.84
2019-02-12T23:09:17.700Z,101036.15
2019-02-12T23:11:44.753Z,101029.22
2019-02-12T23:14:11.818Z,101019.25
2019-02-12T23:16:38.875Z,101006.20
2019-02-12T23:19:05.936Z,100999.27
2019-02-12T23:21:33.004Z,100989.73
2019-02-12T23:24:00.064Z,100974.98
2019-02-12T23:26:27.124Z,100966.27
2019-02-12T23:28:56.479Z,100953.68
2019-02-12T23:31:23.543Z,100948.89
2019-02-12T23:33:50.800Z,100948.05
2019-02-12T23:36:17.863Z,100929.78
2019-02-12T23:38:44.923Z,100919.33
2019-02-12T23:41:11.983Z,100914.14
2019-02-12T23:43:39.043Z,100912.83
2019-02-12T23:46:06.112Z,100905.02
2019-02-12T23:48:33.178Z,100891.54
2019-02-12T23:51:00.251Z,100887.21
2019-02-12T23:53:27.307Z,100886.77
2019-02-12T23:55:54.587Z,100877.22
2019-02-12T23:58:25.653Z,100868.52
